createdAt,value
2018-07-03T00:00:35.072Z,0
2018-07-03T00:01:36.464Z,0
2018-07-03T00:02:37.852Z,0
2018-07-03T00:03:39.238Z,0
2018-07-03T00:04:40.622Z,0
2018-07-03T00:05:42.011Z,0
2018-07-03T00:06:43.394Z,0
2018-07-03T00:07:44.782Z,0
2018-07-03T00:08:46.163Z,0
2018-07-03T00:09:47.547Z,0
2018-07-03T00:10:48.934Z,0
2018-07-03T00:11:50.318Z,0
2018-07-03T00:12:51.699Z,0
2018-07-03T00:13:53.085Z,0
2018-07-03T00:14:54.472Z,0
2018-07-03T00:15:55.852Z,0
2018-07-03T00:16:57.237Z,0
2018-07-03T00:17:58.629Z,0
2018-07-03T00:19:00.019Z,0
2018-07-03T00:20:02.267Z,0
2018-07-03T00:21:03.645Z,0
2018-07-03T00:22:05.030Z,0
2018-07-03T00:23:06.408Z,0
2018-07-03T00:24:07.795Z,0
2018-07-03T00:25:09.189Z,0
2018-07-03T00:26:10.575Z,0
2018-07-03T00:27:11.951Z,0
2018-07-03T00:28:13.344Z,0
2018-07-03T00:29:14.723Z,0
2018-07-03T00:30:16.106Z,0
2018-07-03T00:31:17.488Z,0
2018-07-03T00:32:18.866Z,0
2018-07-03T00:33:20.251Z,0
2018-07-03T00:34:21.637Z,0
2018-07-03T00:35:23.026Z,0
2018-07-03T00:36:24.406Z,0
2018-07-03T00:37:25.794Z,0
2018-07-03T00:38:27.176Z,0
2018-07-03T00:39:28.567Z,0
2018-07-03T00:40:29.942Z,0
2018-07-03T00:41:32.077Z,0
2018-07-03T00:42:33.464Z,0
2018-07-03T00:43:34.847Z,0
2018-07-03T00:44:36.222Z,0
2018-07-03T00:45:37.619Z,0
2018-07-03T00:46:39.008Z,0
2018-07-03T00:47:40.392Z,0
2018-07-03T00:48:41.771Z,0
2018-07-03T00:49:43.169Z,0
2018-07-03T00:50:44.564Z,0
2018-07-03T00:51:45.947Z,0
2018-07-03T00:52:47.329Z,0
2018-07-03T00:53:48.723Z,0
2018-07-03T00:54:50.095Z,0
2018-07-03T00:55:51.485Z,0
2018-07-03T00:56:52.870Z,0
2018-07-03T00:57:54.249Z,0
2018-07-03T00:58:55.631Z,0
2018-07-03T00:59:57.028Z,0
2018-07-03T01:00:58.412Z,0
2018-07-03T01:02:00.612Z,0
2018-07-03T01:03:02.030Z,0
2018-07-03T01:04:03.400Z,0
2018-07-03T01:05:04.785Z,0
2018-07-03T01:06:06.188Z,0
2018-07-03T01:07:07.564Z,0
2018-07-03T01:08:08.964Z,0
2018-07-03T01:09:10.364Z,0
2018-07-03T01:10:11.744Z,0
2018-07-03T01:11:13.132Z,0
2018-07-03T01:12:15.184Z,0
2018-07-03T01:13:16.572Z,0
2018-07-03T01:14:17.945Z,0
2018-07-03T01:15:19.323Z,0
2018-07-03T01:16:20.718Z,0
2018-07-03T01:17:22.103Z,0
2018-07-03T01:18:23.513Z,0
2018-07-03T01:19:24.906Z,0
2018-07-03T01:20:26.287Z,0
2018-07-03T01:21:27.676Z,0
2018-07-03T01:22:29.063Z,0
2018-07-03T01:23:30.467Z,0
2018-07-03T01:24:31.844Z,0
2018-07-03T01:25:33.231Z,0
2018-07-03T01:26:34.618Z,0
2018-07-03T01:27:35.989Z,0
2018-07-03T01:28:37.394Z,0
2018-07-03T01:29:38.774Z,0
2018-07-03T01:30:40.160Z,0
2018-07-03T01:31:41.544Z,0
2018-07-03T01:32:42.936Z,0
2018-07-03T01:33:44.315Z,0
2018-07-03T01:34:45.713Z,0
2018-07-03T01:35:47.084Z,0
2018-07-03T01:36:48.481Z,0
2018-07-03T01:37:49.866Z,0
2018-07-03T01:38:51.254Z,0
2018-07-03T01:39:52.634Z,0
2018-07-03T01:40:54.028Z,0
2018-07-03T01:41:55.416Z,0
2018-07-03T01:42:56.802Z,0
2018-07-03T01:43:58.189Z,0
2018-07-03T01:44:59.573Z,0
2018-07-03T01:46:00.949Z,0
2018-07-03T01:47:02.347Z,0
2018-07-03T01:48:03.724Z,0
2018-07-03T01:49:05.113Z,0
2018-07-03T01:50:06.503Z,0
2018-07-03T01:51:07.885Z,0
2018-07-03T01:52:09.273Z,0
2018-07-03T01:53:10.657Z,0
2018-07-03T01:54:12.043Z,0
2018-07-03T01:55:13.437Z,0
2018-07-03T01:56:14.811Z,0
2018-07-03T01:57:16.205Z,0
2018-07-03T01:58:17.585Z,0
2018-07-03T01:59:18.961Z,0
2018-07-03T02:00:20.347Z,0
2018-07-03T02:01:21.729Z,0
2018-07-03T02:02:23.121Z,0
2018-07-03T02:03:24.498Z,0
2018-07-03T02:04:25.880Z,0
2018-07-03T02:05:27.264Z,0
2018-07-03T02:06:28.652Z,0
2018-07-03T02:07:30.045Z,0
2018-07-03T02:08:31.422Z,0
2018-07-03T02:09:32.806Z,0
2018-07-03T02:10:34.208Z,0
2018-07-03T02:11:35.598Z,0
2018-07-03T02:12:36.986Z,0
2018-07-03T02:13:38.363Z,0
2018-07-03T02:14:39.754Z,0
2018-07-03T02:15:41.135Z,0
2018-07-03T02:16:42.517Z,0
2018-07-03T02:17:43.903Z,0
2018-07-03T02:18:45.292Z,0
2018-07-03T02:19:46.678Z,0
2018-07-03T02:20:48.075Z,0
2018-07-03T02:21:49.983Z,0
2018-07-03T02:22:51.359Z,0
2018-07-03T02:23:52.745Z,0
2018-07-03T02:24:54.138Z,0
2018-07-03T02:25:55.520Z,0
2018-07-03T02:26:56.917Z,0
2018-07-03T02:27:58.314Z,0
2018-07-03T02:28:59.697Z,0
2018-07-03T02:30:01.795Z,0
2018-07-03T02:31:03.183Z,0
2018-07-03T02:32:04.578Z,0
2018-07-03T02:33:05.965Z,0
2018-07-03T02:34:07.345Z,0
2018-07-03T02:35:08.729Z,0
2018-07-03T02:36:10.128Z,0
2018-07-03T02:37:11.511Z,0
2018-07-03T02:38:12.890Z,0
2018-07-03T02:39:14.302Z,0
2018-07-03T02:40:15.691Z,0
2018-07-03T02:41:17.076Z,0
2018-07-03T02:42:18.472Z,0
2018-07-03T02:43:19.858Z,0
2018-07-03T02:44:21.238Z,0
2018-07-03T02:45:22.621Z,0
2018-07-03T02:46:24.005Z,0
2018-07-03T02:47:25.391Z,0
2018-07-03T02:48:26.775Z,0
2018-07-03T02:49:28.160Z,0
2018-07-03T02:50:29.556Z,0
2018-07-03T02:51:30.931Z,0
2018-07-03T02:52:32.311Z,0
2018-07-03T02:53:33.688Z,0
2018-07-03T02:54:35.101Z,0
2018-07-03T02:55:36.470Z,0
2018-07-03T02:56:37.852Z,0
2018-07-03T02:57:39.239Z,0
2018-07-03T02:58:40.625Z,5
2018-07-03T02:59:42.015Z,5
2018-07-03T03:00:43.406Z,5
2018-07-03T03:01:44.792Z,5
2018-07-03T03:02:46.173Z,5
2018-07-03T03:03:47.560Z,5
2018-07-03T03:04:48.955Z,5
2018-07-03T03:05:50.345Z,5
2018-07-03T03:06:51.737Z,5
2018-07-03T03:07:53.128Z,5
2018-07-03T03:08:54.519Z,5
2018-07-03T03:09:55.902Z,5
2018-07-03T03:10:57.299Z,5
2018-07-03T03:11:58.673Z,5
2018-07-03T03:13:00.067Z,5
2018-07-03T03:14:01.455Z,10
2018-07-03T03:15:02.842Z,10
2018-07-03T03:16:04.229Z,10
2018-07-03T03:17:05.606Z,10
2018-07-03T03:18:06.992Z,10
2018-07-03T03:19:08.398Z,15
2018-07-03T03:20:09.789Z,15
2018-07-03T03:21:11.204Z,20
2018-07-03T03:22:12.598Z,20
2018-07-03T03:23:13.980Z,20
2018-07-03T03:24:15.362Z,20
2018-07-03T03:25:16.742Z,20
2018-07-03T03:26:18.140Z,20
2018-07-03T03:27:19.518Z,20
2018-07-03T03:28:20.906Z,20
2018-07-03T03:29:22.300Z,25
2018-07-03T03:30:23.678Z,25
2018-07-03T03:31:25.075Z,25
2018-07-03T03:32:26.459Z,25
2018-07-03T03:33:27.858Z,25
2018-07-03T03:34:29.238Z,25
2018-07-03T03:35:30.627Z,25
2018-07-03T03:36:32.019Z,25
2018-07-03T03:37:33.417Z,30
2018-07-03T03:38:34.795Z,30
2018-07-03T03:39:36.183Z,30
2018-07-03T03:40:37.575Z,30
2018-07-03T03:41:38.957Z,35
2018-07-03T03:42:40.353Z,35
2018-07-03T03:43:41.746Z,35
2018-07-03T03:44:43.125Z,35
2018-07-03T03:45:44.516Z,35
2018-07-03T03:46:45.910Z,35
2018-07-03T03:47:47.301Z,35
2018-07-03T03:48:48.696Z,35
2018-07-03T03:49:50.075Z,40
2018-07-03T03:50:51.468Z,40
2018-07-03T03:51:52.854Z,40
2018-07-03T03:52:54.240Z,40
2018-07-03T03:53:55.663Z,40
2018-07-03T03:54:56.976Z,40
2018-07-03T03:55:58.371Z,40
2018-07-03T03:56:59.751Z,45
2018-07-03T03:58:01.146Z,45
2018-07-03T03:59:02.537Z,50
2018-07-03T04:00:03.925Z,45
2018-07-03T04:01:05.328Z,45
2018-07-03T04:02:06.795Z,50
2018-07-03T04:03:08.117Z,55
2018-07-03T04:04:09.519Z,60
2018-07-03T04:05:10.915Z,65
2018-07-03T04:06:12.311Z,70
2018-07-03T04:07:13.707Z,75
2018-07-03T04:08:15.099Z,80
2018-07-03T04:09:16.487Z,85
2018-07-03T04:10:17.881Z,85
2018-07-03T04:11:20.035Z,85
2018-07-03T04:12:21.420Z,90
2018-07-03T04:13:22.807Z,105
2018-07-03T04:14:24.195Z,105
2018-07-03T04:15:25.590Z,110
2018-07-03T04:16:26.988Z,115
2018-07-03T04:17:28.378Z,115
2018-07-03T04:18:29.768Z,100
2018-07-03T04:19:31.150Z,100
2018-07-03T04:20:32.568Z,135
2018-07-03T04:21:33.962Z,165
2018-07-03T04:22:35.364Z,115
2018-07-03T04:23:37.524Z,100
2018-07-03T04:24:38.924Z,105
2018-07-03T04:25:40.308Z,110
2018-07-03T04:26:41.698Z,110
2018-07-03T04:27:43.094Z,110
2018-07-03T04:28:44.490Z,110
2018-07-03T04:29:45.881Z,110
2018-07-03T04:30:47.281Z,110
2018-07-03T04:31:48.677Z,110
2018-07-03T04:32:50.075Z,105
2018-07-03T04:33:51.469Z,105
2018-07-03T04:34:52.864Z,105
2018-07-03T04:35:54.249Z,110
2018-07-03T04:36:55.651Z,115
2018-07-03T04:37:57.045Z,120
2018-07-03T04:38:58.435Z,125
2018-07-03T04:39:59.825Z,145
2018-07-03T04:41:01.225Z,145
2018-07-03T04:42:02.616Z,150
2018-07-03T04:43:04.004Z,170
2018-07-03T04:44:05.407Z,150
2018-07-03T04:45:06.794Z,140
2018-07-03T04:46:08.191Z,155
2018-07-03T04:47:09.582Z,245
2018-07-03T04:48:10.968Z,365
2018-07-03T04:49:12.354Z,365
2018-07-03T04:50:13.749Z,325
2018-07-03T04:51:15.142Z,285
2018-07-03T04:52:16.530Z,205
2018-07-03T04:53:17.964Z,155
2018-07-03T04:54:19.318Z,145
2018-07-03T04:55:20.708Z,145
2018-07-03T04:56:22.110Z,170
2018-07-03T04:57:23.507Z,275
2018-07-03T04:58:24.899Z,250
2018-07-03T04:59:26.284Z,150
2018-07-03T05:00:27.687Z,150
2018-07-03T05:01:29.078Z,150
2018-07-03T05:02:30.479Z,155
2018-07-03T05:03:31.869Z,160
2018-07-03T05:04:33.263Z,160
2018-07-03T05:05:34.653Z,165
2018-07-03T05:06:36.059Z,165
2018-07-03T05:07:37.449Z,170
2018-07-03T05:08:38.834Z,175
2018-07-03T05:09:40.219Z,175
2018-07-03T05:10:41.615Z,175
2018-07-03T05:11:42.999Z,180
2018-07-03T05:12:44.395Z,185
2018-07-03T05:13:45.800Z,190
2018-07-03T05:14:47.191Z,200
2018-07-03T05:15:48.584Z,215
2018-07-03T05:16:49.973Z,230
2018-07-03T05:17:51.362Z,320
2018-07-03T05:18:52.757Z,535
2018-07-03T05:19:54.156Z,695
2018-07-03T05:20:55.554Z,720
2018-07-03T05:21:56.968Z,745
2018-07-03T05:22:58.370Z,765
2018-07-03T05:23:59.769Z,785
2018-07-03T05:25:01.166Z,805
2018-07-03T05:26:02.561Z,810
2018-07-03T05:27:03.959Z,585
2018-07-03T05:28:05.361Z,310
2018-07-03T05:29:06.761Z,240
2018-07-03T05:30:08.181Z,255
2018-07-03T05:31:09.577Z,250
2018-07-03T05:32:10.977Z,225
2018-07-03T05:33:12.382Z,220
2018-07-03T05:34:13.773Z,210
2018-07-03T05:35:15.167Z,200
2018-07-03T05:36:16.556Z,190
2018-07-03T05:37:17.978Z,180
2018-07-03T05:38:19.326Z,175
2018-07-03T05:39:20.720Z,165
2018-07-03T05:40:22.120Z,160
2018-07-03T05:41:23.517Z,165
2018-07-03T05:42:25.160Z,175
2018-07-03T05:43:26.320Z,180
2018-07-03T05:44:27.716Z,195
2018-07-03T05:45:29.106Z,205
2018-07-03T05:46:30.500Z,215
2018-07-03T05:47:31.901Z,410
2018-07-03T05:48:33.305Z,695
2018-07-03T05:49:34.709Z,840
2018-07-03T05:50:36.097Z,855
2018-07-03T05:51:37.495Z,875
2018-07-03T05:52:38.883Z,870
2018-07-03T05:53:40.271Z,955
2018-07-03T05:54:41.677Z,1030
2018-07-03T05:55:43.088Z,1050
2018-07-03T05:56:44.484Z,1065
2018-07-03T05:57:45.881Z,1080
2018-07-03T05:58:47.284Z,1095
2018-07-03T05:59:48.682Z,1105
2018-07-03T06:00:50.080Z,1105
2018-07-03T06:01:51.484Z,1095
2018-07-03T06:02:52.884Z,1095
2018-07-03T06:03:54.327Z,1080
2018-07-03T06:04:55.704Z,1070
2018-07-03T06:05:57.108Z,1060
2018-07-03T06:06:59.139Z,1050
2018-07-03T06:08:00.518Z,1045
2018-07-03T06:09:01.948Z,1050
2018-07-03T06:10:03.341Z,1065
2018-07-03T06:11:04.761Z,1070
2018-07-03T06:12:06.173Z,1090
2018-07-03T06:13:07.569Z,1105
2018-07-03T06:14:08.988Z,1120
2018-07-03T06:15:10.389Z,1135
2018-07-03T06:16:11.803Z,1155
2018-07-03T06:17:13.213Z,1190
2018-07-03T06:18:14.619Z,1230
2018-07-03T06:19:16.019Z,1290
2018-07-03T06:20:17.429Z,1340
2018-07-03T06:21:18.831Z,1415
2018-07-03T06:22:20.299Z,1410
2018-07-03T06:23:21.655Z,1130
2018-07-03T06:24:23.062Z,1215
2018-07-03T06:25:24.476Z,1030
2018-07-03T06:26:25.897Z,750
2018-07-03T06:27:27.299Z,780
2018-07-03T06:28:28.708Z,525
2018-07-03T06:29:30.110Z,505
2018-07-03T06:30:31.522Z,505
2018-07-03T06:31:32.933Z,500
2018-07-03T06:32:34.330Z,495
2018-07-03T06:33:35.749Z,495
2018-07-03T06:34:37.154Z,490
2018-07-03T06:35:38.558Z,485
2018-07-03T06:36:39.963Z,485
2018-07-03T06:37:41.392Z,485
2018-07-03T06:38:43.722Z,485
2018-07-03T06:39:44.137Z,480
2018-07-03T06:40:45.550Z,470
2018-07-03T06:41:46.951Z,470
2018-07-03T06:42:48.358Z,470
2018-07-03T06:43:49.754Z,460
2018-07-03T06:44:51.222Z,455
2018-07-03T06:45:52.567Z,455
2018-07-03T06:46:53.971Z,450
2018-07-03T06:47:55.381Z,445
2018-07-03T06:48:56.791Z,445
2018-07-03T06:49:58.194Z,440
2018-07-03T06:51:00.512Z,430
2018-07-03T06:52:01.911Z,435
2018-07-03T06:53:04.263Z,430
2018-07-03T06:54:05.667Z,420
2018-07-03T06:55:07.076Z,415
2018-07-03T06:56:08.475Z,410
2018-07-03T06:57:09.885Z,400
2018-07-03T06:58:11.282Z,400
2018-07-03T06:59:12.681Z,400
2018-07-03T07:00:14.087Z,400
2018-07-03T07:01:15.488Z,380
2018-07-03T07:02:16.892Z,365
2018-07-03T07:03:18.299Z,395
2018-07-03T07:04:19.695Z,360
2018-07-03T07:05:21.098Z,350
2018-07-03T07:06:22.502Z,350
2018-07-03T07:07:23.905Z,335
2018-07-03T07:08:25.309Z,335
2018-07-03T07:09:26.780Z,325
2018-07-03T07:10:28.066Z,330
2018-07-03T07:11:29.471Z,325
2018-07-03T07:12:30.875Z,345
2018-07-03T07:13:32.275Z,370
2018-07-03T07:14:33.668Z,450
2018-07-03T07:15:35.063Z,445
2018-07-03T07:16:36.469Z,475
2018-07-03T07:17:37.875Z,520
2018-07-03T07:18:39.273Z,540
2018-07-03T07:19:40.675Z,550
2018-07-03T07:20:42.077Z,530
2018-07-03T07:21:43.486Z,525
2018-07-03T07:22:44.888Z,500
2018-07-03T07:23:46.289Z,475
2018-07-03T07:24:47.694Z,470
2018-07-03T07:25:49.100Z,470
2018-07-03T07:26:50.501Z,510
2018-07-03T07:27:51.904Z,470
2018-07-03T07:28:53.304Z,475
2018-07-03T07:29:54.702Z,450
2018-07-03T07:30:56.109Z,450
2018-07-03T07:31:57.506Z,460
2018-07-03T07:32:58.901Z,460
2018-07-03T07:34:00.293Z,475
2018-07-03T07:35:02.495Z,480
2018-07-03T07:36:03.890Z,485
2018-07-03T07:37:05.969Z,490
2018-07-03T07:38:07.365Z,490
2018-07-03T07:39:08.762Z,505
2018-07-03T07:40:10.164Z,510
2018-07-03T07:41:11.556Z,515
2018-07-03T07:42:12.948Z,520
2018-07-03T07:43:14.354Z,505
2018-07-03T07:44:15.755Z,525
2018-07-03T07:45:17.154Z,500
2018-07-03T07:46:18.554Z,485
2018-07-03T07:47:19.949Z,290
2018-07-03T07:48:21.350Z,420
2018-07-03T07:49:22.751Z,400
2018-07-03T07:50:24.151Z,415
2018-07-03T07:51:25.544Z,360
2018-07-03T07:52:26.948Z,340
2018-07-03T07:53:28.352Z,360
2018-07-03T07:54:29.738Z,350
2018-07-03T07:55:31.146Z,440
2018-07-03T07:56:32.546Z,315
2018-07-03T07:57:33.946Z,280
2018-07-03T07:58:35.347Z,280
2018-07-03T07:59:36.767Z,325
2018-07-03T08:00:38.156Z,325
2018-07-03T08:01:39.559Z,290
2018-07-03T08:02:40.950Z,265
2018-07-03T08:03:42.352Z,270
2018-07-03T08:04:43.740Z,395
2018-07-03T08:05:45.147Z,295
2018-07-03T08:06:46.593Z,335
2018-07-03T08:07:47.893Z,280
2018-07-03T08:08:49.297Z,235
2018-07-03T08:09:50.688Z,280
2018-07-03T08:10:52.091Z,255
2018-07-03T08:11:53.499Z,210
2018-07-03T08:12:54.899Z,265
2018-07-03T08:13:56.300Z,235
2018-07-03T08:14:57.701Z,215
2018-07-03T08:15:59.093Z,140
2018-07-03T08:17:00.499Z,445
2018-07-03T08:18:01.906Z,210
2018-07-03T08:19:03.334Z,225
2018-07-03T08:20:04.711Z,145
2018-07-03T08:21:06.113Z,140
2018-07-03T08:22:07.506Z,300
2018-07-03T08:23:08.908Z,225
2018-07-03T08:24:10.300Z,140
2018-07-03T08:25:11.706Z,135
2018-07-03T08:26:13.103Z,135
2018-07-03T08:27:14.501Z,140
2018-07-03T08:28:15.910Z,135
2018-07-03T08:29:17.308Z,135
2018-07-03T08:30:18.699Z,135
2018-07-03T08:31:20.110Z,135
2018-07-03T08:32:21.553Z,125
2018-07-03T08:33:22.912Z,295
2018-07-03T08:34:24.304Z,125
2018-07-03T08:35:25.704Z,125
2018-07-03T08:36:27.096Z,120
2018-07-03T08:37:28.504Z,115
2018-07-03T08:38:29.906Z,115
2018-07-03T08:39:31.296Z,115
2018-07-03T08:40:32.701Z,115
2018-07-03T08:41:34.099Z,110
2018-07-03T08:42:35.508Z,105
2018-07-03T08:43:36.915Z,105
2018-07-03T08:44:38.313Z,105
2018-07-03T08:45:39.725Z,105
2018-07-03T08:46:41.125Z,105
2018-07-03T08:47:42.506Z,100
2018-07-03T08:48:43.913Z,100
2018-07-03T08:49:45.320Z,100
2018-07-03T08:50:46.723Z,100
2018-07-03T08:51:48.210Z,100
2018-07-03T08:52:49.532Z,100
2018-07-03T08:53:50.948Z,100
2018-07-03T08:54:52.340Z,95
2018-07-03T08:55:53.730Z,95
2018-07-03T08:56:55.126Z,95
2018-07-03T08:57:56.530Z,100
2018-07-03T08:58:57.916Z,95
2018-07-03T08:59:59.334Z,90
2018-07-03T09:01:00.737Z,90
2018-07-03T09:02:02.144Z,90
2018-07-03T09:03:03.561Z,95
2018-07-03T09:04:04.945Z,90
2018-07-03T09:05:07.665Z,90
2018-07-03T09:06:09.065Z,90
2018-07-03T09:07:10.465Z,90
2018-07-03T09:08:11.875Z,90
2018-07-03T09:09:13.279Z,90
2018-07-03T09:10:14.671Z,90
2018-07-03T09:11:16.066Z,95
2018-07-03T09:12:17.471Z,100
2018-07-03T09:13:18.875Z,100
2018-07-03T09:14:20.269Z,105
2018-07-03T09:15:21.673Z,105
2018-07-03T09:16:23.069Z,100
2018-07-03T09:17:24.468Z,110
2018-07-03T09:18:25.867Z,110
2018-07-03T09:19:27.259Z,105
2018-07-03T09:20:28.667Z,105
2018-07-03T09:21:30.054Z,100
2018-07-03T09:22:31.452Z,95
2018-07-03T09:23:32.885Z,90
2018-07-03T09:24:34.241Z,90
2018-07-03T09:25:35.638Z,75
2018-07-03T09:26:37.366Z,65
2018-07-03T09:27:38.910Z,100
2018-07-03T09:28:40.322Z,65
2018-07-03T09:29:41.728Z,100
2018-07-03T09:30:43.148Z,100
2018-07-03T09:31:44.533Z,100
2018-07-03T09:32:45.923Z,95
2018-07-03T09:33:47.320Z,95
2018-07-03T09:34:48.723Z,95
2018-07-03T09:35:50.125Z,100
2018-07-03T09:36:51.515Z,95
2018-07-03T09:37:52.914Z,120
2018-07-03T09:38:54.318Z,115
2018-07-03T09:39:56.351Z,95
2018-07-03T09:40:57.753Z,120
2018-07-03T09:41:59.149Z,120
2018-07-03T09:43:00.552Z,105
2018-07-03T09:44:01.949Z,95
2018-07-03T09:45:03.346Z,85
2018-07-03T09:46:04.750Z,100
2018-07-03T09:47:06.141Z,85
2018-07-03T09:48:07.538Z,115
2018-07-03T09:49:08.936Z,105
2018-07-03T09:50:10.336Z,95
2018-07-03T09:51:11.725Z,95
2018-07-03T09:52:13.126Z,90
2018-07-03T09:53:14.519Z,90
2018-07-03T09:54:15.913Z,90
2018-07-03T09:55:17.304Z,85
2018-07-03T09:56:18.704Z,85
2018-07-03T09:57:20.104Z,85
2018-07-03T09:58:21.499Z,85
2018-07-03T09:59:22.899Z,100
2018-07-03T10:00:24.298Z,100
2018-07-03T10:01:25.745Z,100
2018-07-03T10:02:27.101Z,90
2018-07-03T10:03:28.496Z,95
2018-07-03T10:04:29.893Z,95
2018-07-03T10:05:31.287Z,65
2018-07-03T10:06:32.689Z,65
2018-07-03T10:07:34.085Z,90
2018-07-03T10:08:35.483Z,90
2018-07-03T10:09:36.877Z,70
2018-07-03T10:10:38.934Z,100
2018-07-03T10:11:40.340Z,95
2018-07-03T10:12:41.734Z,90
2018-07-03T10:13:43.127Z,90
2018-07-03T10:14:44.521Z,90
2018-07-03T10:15:45.936Z,100
2018-07-03T10:16:47.345Z,85
2018-07-03T10:17:48.734Z,105
2018-07-03T10:18:50.147Z,105
2018-07-03T10:19:51.530Z,100
2018-07-03T10:20:52.929Z,90
2018-07-03T10:21:54.326Z,90
2018-07-03T10:22:55.720Z,90
2018-07-03T10:23:57.136Z,90
2018-07-03T10:24:58.520Z,90
2018-07-03T10:25:59.924Z,95
2018-07-03T10:27:01.331Z,100
2018-07-03T10:28:02.720Z,115
2018-07-03T10:29:04.125Z,125
2018-07-03T10:30:05.517Z,100
2018-07-03T10:31:06.921Z,105
2018-07-03T10:32:08.323Z,125
2018-07-03T10:33:09.725Z,135
2018-07-03T10:34:11.117Z,140
2018-07-03T10:35:12.513Z,145
2018-07-03T10:36:13.919Z,135
2018-07-03T10:37:15.925Z,125
2018-07-03T10:38:17.321Z,120
2018-07-03T10:39:18.718Z,110
2018-07-03T10:40:20.127Z,110
2018-07-03T10:41:21.516Z,110
2018-07-03T10:42:22.920Z,105
2018-07-03T10:43:24.318Z,100
2018-07-03T10:44:25.709Z,95
2018-07-03T10:45:27.124Z,95
2018-07-03T10:46:28.519Z,90
2018-07-03T10:47:29.921Z,90
2018-07-03T10:48:31.325Z,85
2018-07-03T10:49:32.750Z,85
2018-07-03T10:50:34.137Z,75
2018-07-03T10:51:35.537Z,65
2018-07-03T10:52:36.937Z,75
2018-07-03T10:53:38.324Z,105
2018-07-03T10:54:39.714Z,105
2018-07-03T10:55:41.123Z,100
2018-07-03T10:56:42.521Z,110
2018-07-03T10:57:43.920Z,125
2018-07-03T10:58:45.314Z,135
2018-07-03T10:59:46.715Z,140
2018-07-03T11:00:48.112Z,135
2018-07-03T11:01:49.504Z,140
2018-07-03T11:02:50.901Z,125
2018-07-03T11:03:52.296Z,95
2018-07-03T11:04:54.516Z,105
2018-07-03T11:05:55.931Z,120
2018-07-03T11:06:57.323Z,115
2018-07-03T11:07:58.718Z,130
2018-07-03T11:09:00.120Z,130
2018-07-03T11:10:01.528Z,145
2018-07-03T11:11:02.928Z,165
2018-07-03T11:12:04.332Z,175
2018-07-03T11:13:05.731Z,150
2018-07-03T11:14:07.186Z,150
2018-07-03T11:15:08.547Z,130
2018-07-03T11:16:09.951Z,125
2018-07-03T11:17:11.355Z,115
2018-07-03T11:18:12.745Z,105
2018-07-03T11:19:14.151Z,105
2018-07-03T11:20:15.634Z,135
2018-07-03T11:21:16.943Z,145
2018-07-03T11:22:18.347Z,150
2018-07-03T11:23:19.747Z,140
2018-07-03T11:24:21.135Z,160
2018-07-03T11:25:22.537Z,170
2018-07-03T11:26:23.945Z,150
2018-07-03T11:27:25.347Z,145
2018-07-03T11:28:26.733Z,180
2018-07-03T11:29:28.135Z,145
2018-07-03T11:30:29.538Z,215
2018-07-03T11:31:30.939Z,180
2018-07-03T11:32:32.334Z,115
2018-07-03T11:33:33.736Z,115
2018-07-03T11:34:35.134Z,125
2018-07-03T11:35:36.540Z,160
2018-07-03T11:36:37.958Z,215
2018-07-03T11:37:39.392Z,160
2018-07-03T11:38:40.748Z,170
2018-07-03T11:39:42.150Z,225
2018-07-03T11:40:43.548Z,280
2018-07-03T11:41:44.948Z,315
2018-07-03T11:42:46.354Z,265
2018-07-03T11:43:47.752Z,270
2018-07-03T11:44:49.193Z,265
2018-07-03T11:45:50.575Z,200
2018-07-03T11:46:51.974Z,285
2018-07-03T11:47:53.375Z,320
2018-07-03T11:48:54.762Z,220
2018-07-03T11:49:56.167Z,685
2018-07-03T11:50:58.906Z,1445
2018-07-03T11:51:59.673Z,2255
2018-07-03T11:53:01.066Z,2545
2018-07-03T11:54:02.465Z,2515
2018-07-03T11:55:03.871Z,2515
2018-07-03T11:56:05.283Z,2485
2018-07-03T11:57:06.681Z,2515
2018-07-03T11:58:08.088Z,2535
2018-07-03T11:59:09.495Z,2560
2018-07-03T12:00:10.911Z,2625
2018-07-03T12:01:12.315Z,2665
2018-07-03T12:02:13.717Z,2675
2018-07-03T12:03:15.127Z,2480
2018-07-03T12:04:16.523Z,2515
2018-07-03T12:05:17.930Z,2455
2018-07-03T12:06:19.329Z,2375
2018-07-03T12:07:20.734Z,2300
2018-07-03T12:08:22.142Z,2255
2018-07-03T12:09:23.541Z,1200
2018-07-03T12:10:24.952Z,1960
2018-07-03T12:11:26.358Z,2330
2018-07-03T12:12:28.292Z,1455
2018-07-03T12:13:29.708Z,365
2018-07-03T12:14:31.120Z,465
2018-07-03T12:15:32.508Z,720
2018-07-03T12:16:33.900Z,1985
2018-07-03T12:17:35.310Z,2130
2018-07-03T12:18:36.697Z,2115
2018-07-03T12:19:38.175Z,1540
2018-07-03T12:20:39.515Z,995
2018-07-03T12:21:40.915Z,1545
2018-07-03T12:22:42.314Z,2050
2018-07-03T12:23:43.720Z,950
2018-07-03T12:24:45.115Z,715
2018-07-03T12:25:46.525Z,175
2018-07-03T12:26:47.933Z,830
2018-07-03T12:27:49.337Z,190
2018-07-03T12:28:50.788Z,1265
2018-07-03T12:29:52.159Z,1045
2018-07-03T12:30:53.562Z,1385
2018-07-03T12:31:54.965Z,1820
2018-07-03T12:32:56.369Z,1560
2018-07-03T12:33:57.772Z,2175
2018-07-03T12:34:59.186Z,2080
2018-07-03T12:36:00.597Z,210
2018-07-03T12:37:02.001Z,225
2018-07-03T12:38:03.409Z,410
2018-07-03T12:39:04.811Z,170
2018-07-03T12:40:06.213Z,110
2018-07-03T12:41:07.614Z,110
2018-07-03T12:42:09.017Z,115
2018-07-03T12:43:10.423Z,100
2018-07-03T12:44:11.833Z,95
2018-07-03T12:45:13.226Z,95
2018-07-03T12:46:14.630Z,95
2018-07-03T12:47:16.029Z,95
2018-07-03T12:48:17.427Z,95
2018-07-03T12:49:18.843Z,95
2018-07-03T12:50:20.249Z,90
2018-07-03T12:51:21.649Z,80
2018-07-03T12:52:23.053Z,65
2018-07-03T12:53:24.458Z,65
2018-07-03T12:54:25.873Z,85
2018-07-03T12:55:27.336Z,80
2018-07-03T12:56:28.641Z,80
2018-07-03T12:57:30.029Z,85
2018-07-03T12:58:32.399Z,85
2018-07-03T12:59:33.795Z,85
2018-07-03T13:00:35.192Z,85
2018-07-03T13:01:36.596Z,80
2018-07-03T13:02:37.987Z,70
2018-07-03T13:03:39.384Z,70
2018-07-03T13:04:40.789Z,70
2018-07-03T13:05:42.194Z,70
2018-07-03T13:06:43.598Z,70
2018-07-03T13:07:44.999Z,70
2018-07-03T13:08:46.396Z,70
2018-07-03T13:09:47.808Z,70
2018-07-03T13:10:49.219Z,70
2018-07-03T13:11:50.621Z,65
2018-07-03T13:12:52.031Z,65
2018-07-03T13:13:53.420Z,60
2018-07-03T13:14:55.624Z,55
2018-07-03T13:15:57.066Z,55
2018-07-03T13:16:58.412Z,50
2018-07-03T13:17:59.810Z,50
2018-07-03T13:19:01.215Z,50
2018-07-03T13:20:02.617Z,45
2018-07-03T13:21:04.011Z,45
2018-07-03T13:22:05.409Z,45
2018-07-03T13:23:06.819Z,45
2018-07-03T13:24:08.220Z,45
2018-07-03T13:25:09.623Z,50
2018-07-03T13:26:11.024Z,50
2018-07-03T13:27:12.425Z,50
2018-07-03T13:28:13.831Z,50
2018-07-03T13:29:15.225Z,45
2018-07-03T13:30:16.615Z,45
2018-07-03T13:31:18.025Z,45
2018-07-03T13:32:19.412Z,45
2018-07-03T13:33:20.814Z,45
2018-07-03T13:34:22.217Z,45
2018-07-03T13:35:23.612Z,45
2018-07-03T13:36:25.054Z,45
2018-07-03T13:37:26.425Z,45
2018-07-03T13:38:27.846Z,45
2018-07-03T13:39:29.238Z,45
2018-07-03T13:40:30.644Z,45
2018-07-03T13:41:32.049Z,45
2018-07-03T13:42:33.436Z,45
2018-07-03T13:43:34.848Z,50
2018-07-03T13:44:36.241Z,50
2018-07-03T13:45:37.653Z,45
2018-07-03T13:46:39.063Z,50
2018-07-03T13:47:40.454Z,50
2018-07-03T13:48:41.867Z,45
2018-07-03T13:49:43.260Z,45
2018-07-03T13:50:44.653Z,50
2018-07-03T13:51:46.061Z,50
2018-07-03T13:52:47.457Z,45
2018-07-03T13:53:48.864Z,45
2018-07-03T13:54:50.256Z,45
2018-07-03T13:55:51.650Z,45
2018-07-03T13:56:53.045Z,45
2018-07-03T13:57:54.405Z,45
2018-07-03T13:58:55.815Z,45
2018-07-03T13:59:57.199Z,45
2018-07-03T14:00:58.605Z,40
2018-07-03T14:02:00.002Z,40
2018-07-03T14:03:01.407Z,40
2018-07-03T14:04:02.814Z,40
2018-07-03T14:05:04.205Z,40
2018-07-03T14:06:06.334Z,40
2018-07-03T14:07:07.747Z,40
2018-07-03T14:08:09.136Z,40
2018-07-03T14:09:10.529Z,40
2018-07-03T14:10:11.946Z,40
2018-07-03T14:11:13.350Z,40
2018-07-03T14:12:14.749Z,45
2018-07-03T14:13:16.156Z,45
2018-07-03T14:14:17.568Z,45
2018-07-03T14:15:18.963Z,45
2018-07-03T14:16:20.350Z,45
2018-07-03T14:17:21.746Z,45
2018-07-03T14:18:23.145Z,45
2018-07-03T14:19:24.545Z,45
2018-07-03T14:20:26.906Z,45
2018-07-03T14:21:28.299Z,45
2018-07-03T14:22:29.709Z,40
2018-07-03T14:23:31.120Z,40
2018-07-03T14:24:32.517Z,40